St. Louis Express — WDD3825 — position and weather

sailwx.info

Track history (hours):
 
Tides and Currents Weather Stations Pressure Air Temp Water Temp Dewpoint Dewpoint Depression Visibility Wind Speed Wind Dir Waves Ship Positions

St. Louis Express

Owner: Marine Transport Management, Inc C/O Crowley Ship Management, Jacksonville, FL. More information available from US FCC via Universal Licensing System.

Last reported at 2016-Feb-07 12:32 UTC. Time now 2016-Feb-07 13:07 UTC.
Position N 53°35' E 008°32'.

Type: Cargo ship. MMSI: 367136680.

Date/timePositionNaut miles runAvg speedWind from/ knotsBaromVisibWave heightAir tempDewpointWater temp
2016-Feb-07 12:32N 53°35' E 008°32'0 0.0
2016-Feb-07 11:32N 53°35' E 008°32'0 0.0
2016-Feb-07 10:32N 53°35' E 008°32'0 0.0
2016-Feb-07 09:32N 53°35' E 008°32'0 0.0
2016-Feb-07 08:32N 53°35' E 008°32'0 0.0
2016-Feb-07 07:32N 53°35' E 008°32'0 0.0
2016-Feb-07 06:32N 53°35' E 008°32'0 0.0
2016-Feb-07 05:32N 53°35' E 008°32'0 0.0
2016-Feb-07 04:32N 53°35' E 008°32'0 0.0
2016-Feb-07 03:32N 53°35' E 008°32'0 0.0
2016-Feb-07 02:32N 53°35' E 008°32'0 0.0
2016-Feb-07 01:32N 53°35' E 008°32'0 0.0
2016-Feb-07 00:32N 53°35' E 008°32'0 0.0
2016-Feb-06 23:32N 53°35' E 008°32'0 0.0
2016-Feb-06 22:32N 53°35' E 008°32'0 0.0
2016-Feb-06 21:32N 53°35' E 008°32'0 0.0
2016-Feb-06 20:32N 53°35' E 008°32'0 0.0
2016-Feb-06 19:32N 53°35' E 008°32'0 0.0
2016-Feb-06 18:32N 53°35' E 008°32'0 0.0
2016-Feb-06 17:32N 53°35' E 008°32'0 0.0
2016-Feb-06 16:32N 53°35' E 008°32'0 0.0
2016-Feb-06 15:32N 53°35' E 008°32'0 0.0
2016-Feb-06 14:32N 53°35' E 008°32'0 0.0
2016-Feb-06 13:32N 53°35' E 008°32'0 0.0
2016-Feb-06 12:32N 53°35' E 008°32'0 0.0
2016-Feb-06 11:34N 53°35' E 008°32'8 8.4
2016-Feb-06 10:33N 53°41' E 008°21'1313.5
2016-Feb-06 09:33N 53°50' E 008°04'1110.9
2016-Feb-06 08:34N 53°53' E 007°47'4 4.3
2016-Feb-06 07:34N 53°52' E 007°39'6 6.3
2016-Feb-06 06:34N 53°53' E 007°29'1616.1
2016-Feb-06 05:33N 53°51' E 007°02'2019.8
2016-Feb-06 04:33N 53°46' E 006°29'2019.6
2016-Feb-06 03:33N 53°41' E 005°57'2019.6
2016-Feb-06 02:34N 53°34' E 005°26'2019.6
2016-Feb-06 01:33N 53°29' E 004°55'1818.1
2016-Feb-06 00:33N 53°15' E 004°35'1919.4
2016-Feb-05 23:33N 52°57' E 004°21'2018.8
2016-Feb-05 22:31N 52°42' E 004°01'2518.6
2016-Feb-05 21:10N 52°23' E 003°33'2917.8
2016-Feb-05 19:32N 52°00' E 003°05'1616.7
2016-Feb-05 18:33N 51°44' E 003°11'1414.0
2016-Feb-05 17:33N 51°31' E 003°05'10 9.9
2016-Feb-05 16:33N 51°25' E 003°17'1616.0
2016-Feb-05 15:33N 51°25' E 003°43'1111.0
2016-Feb-05 14:33N 51°26' E 004°00'1111.3
2016-Feb-05 13:33N 51°21' E 004°16'1 0.7
2016-Feb-05 12:34N 51°20' E 004°17'0 0.0
2016-Feb-05 11:31N 51°20' E 004°17'0 0.0
2016-Feb-05 10:32N 51°20' E 004°17'0 0.0
2016-Feb-05 09:32N 51°20' E 004°16'0 0.0
2016-Feb-05 08:31N 51°20' E 004°17'0 0.0
2016-Feb-05 07:33N 51°20' E 004°17'0 0.0
2016-Feb-05 06:33N 51°20' E 004°17'0 0.0
2016-Feb-05 05:34N 51°20' E 004°17'0 0.0
2016-Feb-05 04:32N 51°20' E 004°17'0 0.0
2016-Feb-05 03:33N 51°20' E 004°17'0 0.0
2016-Feb-05 02:33N 51°20' E 004°17'0 0.0
2016-Feb-05 01:34N 51°20' E 004°17'0 0.0
2016-Feb-05 00:34N 51°20' E 004°17'0 0.0
2016-Feb-04 23:33N 51°20' E 004°17'0 0.0
2016-Feb-04 22:31N 51°20' E 004°17'0 0.0
2016-Feb-04 21:32N 51°20' E 004°17'0 0.0
2016-Feb-04 20:34N 51°20' E 004°17'0 0.0
2016-Feb-04 19:30N 51°20' E 004°17'0 0.0
2016-Feb-04 18:34N 51°20' E 004°17'0 0.0
2016-Feb-04 17:34N 51°20' E 004°17'0 0.0
2016-Feb-04 16:33N 51°20' E 004°17'0 0.0
2016-Feb-04 15:33N 51°20' E 004°17'0 0.0
2016-Feb-04 14:33N 51°20' E 004°17'0 0.0
2016-Feb-04 13:34N 51°20' E 004°17'0 0.0
2016-Feb-04 12:34N 51°20' E 004°16'0 0.0
2016-Feb-04 11:31N 51°20' E 004°16'0 0.0
2016-Feb-04 10:34N 51°20' E 004°17'0 0.0
2016-Feb-04 09:33N 51°20' E 004°17'0 0.0
2016-Feb-04 08:34N 51°20' E 004°17'0 0.0
2016-Feb-04 07:33N 51°20' E 004°17'0 0.0
2016-Feb-04 06:33N 51°20' E 004°17'0 0.0
2016-Feb-04 05:33N 51°20' E 004°17'0 0.0
2016-Feb-04 04:32N 51°20' E 004°17'0 0.0
2016-Feb-04 03:34N 51°20' E 004°16'0 0.0
2016-Feb-04 02:33N 51°20' E 004°17'0 0.0
2016-Feb-04 01:33N 51°20' E 004°17'0 0.0
2016-Feb-04 00:33N 51°20' E 004°17'0 0.0
2016-Feb-03 23:33N 51°20' E 004°17'0 0.0
2016-Feb-03 22:33N 51°20' E 004°17'0 0.0
2016-Feb-03 21:32N 51°20' E 004°17'5 5.0
2016-Feb-03 20:34N 51°24' E 004°11'10 9.8
2016-Feb-03 19:34N 51°22' E 003°56'1212.0
2016-Feb-03 18:33N 51°26' E 003°37'1111.1
2016-Feb-03 17:33N 51°24' E 003°20'1110.9
2016-Feb-03 16:33N 51°25' E 003°02'1111.3
2016-Feb-03 15:33N 51°23' E 002°44'3 3.0
2016-Feb-03 14:32N 51°26' E 002°41'0 0.1
2016-Feb-03 13:26N 51°26' E 002°41'0 0.0
2016-Feb-03 12:26N 51°26' E 002°41'0 0.0
2016-Feb-03 10:17N 51°26' E 002°41'0 0.0
2016-Feb-03 09:29N 51°26' E 002°41'0 0.0
2016-Feb-03 08:20N 51°26' E 002°41'0 0.0
2016-Feb-03 07:26N 51°26' E 002°41'0 0.0
2016-Feb-03 05:32N 51°26' E 002°41'0 0.0
2016-Feb-03 04:26N 51°26' E 002°41'0 0.0
2016-Feb-03 03:32N 51°26' E 002°41'0 0.0
2016-Feb-03 02:32N 51°26' E 002°41'0 0.0
2016-Feb-03 01:17N 51°26' E 002°41'0 0.0
2016-Feb-03 00:32N 51°26' E 002°41'0 0.1
2016-Feb-02 23:26N 51°26' E 002°41'0 0.1
2016-Feb-02 22:32N 51°26' E 002°41'0 0.0
2016-Feb-02 21:32N 51°26' E 002°41'0 0.1
2016-Feb-02 20:32N 51°26' E 002°41'0 0.1
2016-Feb-02 19:20N 51°26' E 002°41'0 0.0
2016-Feb-02 18:26N 51°26' E 002°41'0 0.1
2016-Feb-02 17:32N 51°26' E 002°41'0 0.1
2016-Feb-02 16:31N 51°26' E 002°41'0 0.1
2016-Feb-02 15:31N 51°26' E 002°41'0 0.0
2016-Feb-02 14:31N 51°26' E 002°41'0 0.0
2016-Feb-02 13:30N 51°26' E 002°41'0 0.1
2016-Feb-02 12:30N 51°26' E 002°41'0 0.1
2016-Feb-02 11:30N 51°26' E 002°41'0 0.4
2016-Feb-02 10:27N 51°26' E 002°41'8 8.3
2016-Feb-02 09:32N 51°22' E 002°31'1616.9
2016-Feb-02 08:33N 51°15' E 002°07'2020.0
2016-Feb-02 07:33N 51°03' E 001°42'71519.0
2016-Jan-31 18:00N 46°06' W 014°42'16818.6 250 / 241029.1 5.4 1.015.011.314.0
2016-Jan-31 09:00N 44°54' W 018°18'5919.8 250 / 221030.4 5.4 1.015.011.315.0
2016-Jan-31 06:00N 44°24' W 019°30'35018.6 250 / 201030.610.8 15.011.315.0
2016-Jan-30 11:11N 42°17' W 026°59'14 6.4
2016-Jan-30 09:00N 42°06' W 026°48'16128.6 250 / 211032.5 5.4 0.515.011.316.0
2016-Jan-30 03:22N 41°57' W 030°24'4019.6
2016-Jan-30 01:19N 41°52' W 031°18'1519.1
2016-Jan-30 00:31N 41°49' W 031°38'6319.5
2016-Jan-29 21:17N 41°40' W 033°02'1420.1
2016-Jan-29 20:33N 41°38' W 033°21'8819.4
2016-Jan-29 16:00N 41°24' W 035°18'2323.3 210 / 251029.210.8 16.013.316.0
2016-Jan-29 15:00N 41°18' W 035°48'5418.2 210 / 251029.210.8 16.013.317.0
2016-Jan-29 12:00N 41°12' W 037°00'13622.7 200 / 251029.5 5.4 0.516.014.318.0
2016-Jan-29 06:00N 41°00' W 040°00'   180 / 201028.010.8 16.513.917.0
Track history (hours):
 
Tides and Currents Weather Stations Pressure Air Temp Water Temp Dewpoint Dewpoint Depression Visibility Wind Speed Wind Dir Waves Ship Positions

St. Louis Express

Owner: Marine Transport Management, Inc C/O Crowley Ship Management, Jacksonville, FL. More information available from US FCC via Universal Licensing System.

Last reported at 2016-Feb-07 12:32 UTC. Time now 2016-Feb-07 13:07 UTC.
Position N 53°35' E 008°32'.

Type: Cargo ship. MMSI: 367136680.

Date/timePositionNaut miles runAvg speedWind from/ knotsBaromVisibWave heightAir tempDewpointWater temp
2016-Feb-07 12:32N 53°35' E 008°32'0 0.0
2016-Feb-07 11:32N 53°35' E 008°32'0 0.0
2016-Feb-07 10:32N 53°35' E 008°32'0 0.0
2016-Feb-07 09:32N 53°35' E 008°32'0 0.0
2016-Feb-07 08:32N 53°35' E 008°32'0 0.0
2016-Feb-07 07:32N 53°35' E 008°32'0 0.0
2016-Feb-07 06:32N 53°35' E 008°32'0 0.0
2016-Feb-07 05:32N 53°35' E 008°32'0 0.0
2016-Feb-07 04:32N 53°35' E 008°32'0 0.0
2016-Feb-07 03:32N 53°35' E 008°32'0 0.0
2016-Feb-07 02:32N 53°35' E 008°32'0 0.0
2016-Feb-07 01:32N 53°35' E 008°32'0 0.0
2016-Feb-07 00:32N 53°35' E 008°32'0 0.0
2016-Feb-06 23:32N 53°35' E 008°32'0 0.0
2016-Feb-06 22:32N 53°35' E 008°32'0 0.0
2016-Feb-06 21:32N 53°35' E 008°32'0 0.0
2016-Feb-06 20:32N 53°35' E 008°32'0 0.0
2016-Feb-06 19:32N 53°35' E 008°32'0 0.0
2016-Feb-06 18:32N 53°35' E 008°32'0 0.0
2016-Feb-06 17:32N 53°35' E 008°32'0 0.0
2016-Feb-06 16:32N 53°35' E 008°32'0 0.0
2016-Feb-06 15:32N 53°35' E 008°32'0 0.0
2016-Feb-06 14:32N 53°35' E 008°32'0 0.0
2016-Feb-06 13:32N 53°35' E 008°32'0 0.0
2016-Feb-06 12:32N 53°35' E 008°32'0 0.0
2016-Feb-06 11:34N 53°35' E 008°32'8 8.4
2016-Feb-06 10:33N 53°41' E 008°21'1313.5
2016-Feb-06 09:33N 53°50' E 008°04'1110.9
2016-Feb-06 08:34N 53°53' E 007°47'4 4.3
2016-Feb-06 07:34N 53°52' E 007°39'6 6.3
2016-Feb-06 06:34N 53°53' E 007°29'1616.1
2016-Feb-06 05:33N 53°51' E 007°02'2019.8
2016-Feb-06 04:33N 53°46' E 006°29'2019.6
2016-Feb-06 03:33N 53°41' E 005°57'2019.6
2016-Feb-06 02:34N 53°34' E 005°26'2019.6
2016-Feb-06 01:33N 53°29' E 004°55'1818.1
2016-Feb-06 00:33N 53°15' E 004°35'1919.4
2016-Feb-05 23:33N 52°57' E 004°21'2018.8
2016-Feb-05 22:31N 52°42' E 004°01'2518.6
2016-Feb-05 21:10N 52°23' E 003°33'2917.8
2016-Feb-05 19:32N 52°00' E 003°05'1616.7
2016-Feb-05 18:33N 51°44' E 003°11'1414.0
2016-Feb-05 17:33N 51°31' E 003°05'10 9.9
2016-Feb-05 16:33N 51°25' E 003°17'1616.0
2016-Feb-05 15:33N 51°25' E 003°43'1111.0
2016-Feb-05 14:33N 51°26' E 004°00'1111.3
2016-Feb-05 13:33N 51°21' E 004°16'1 0.7
2016-Feb-05 12:34N 51°20' E 004°17'0 0.0
2016-Feb-05 11:31N 51°20' E 004°17'0 0.0
2016-Feb-05 10:32N 51°20' E 004°17'0 0.0
2016-Feb-05 09:32N 51°20' E 004°16'0 0.0
2016-Feb-05 08:31N 51°20' E 004°17'0 0.0
2016-Feb-05 07:33N 51°20' E 004°17'0 0.0
2016-Feb-05 06:33N 51°20' E 004°17'0 0.0
2016-Feb-05 05:34N 51°20' E 004°17'0 0.0
2016-Feb-05 04:32N 51°20' E 004°17'0 0.0
2016-Feb-05 03:33N 51°20' E 004°17'0 0.0
2016-Feb-05 02:33N 51°20' E 004°17'0 0.0
2016-Feb-05 01:34N 51°20' E 004°17'0 0.0
2016-Feb-05 00:34N 51°20' E 004°17'0 0.0
2016-Feb-04 23:33N 51°20' E 004°17'0 0.0
2016-Feb-04 22:31N 51°20' E 004°17'0 0.0
2016-Feb-04 21:32N 51°20' E 004°17'0 0.0
2016-Feb-04 20:34N 51°20' E 004°17'0 0.0
2016-Feb-04 19:30N 51°20' E 004°17'0 0.0
2016-Feb-04 18:34N 51°20' E 004°17'0 0.0
2016-Feb-04 17:34N 51°20' E 004°17'0 0.0
2016-Feb-04 16:33N 51°20' E 004°17'0 0.0
2016-Feb-04 15:33N 51°20' E 004°17'0 0.0
2016-Feb-04 14:33N 51°20' E 004°17'0 0.0
2016-Feb-04 13:34N 51°20' E 004°17'0 0.0
2016-Feb-04 12:34N 51°20' E 004°16'0 0.0
2016-Feb-04 11:31N 51°20' E 004°16'0 0.0
2016-Feb-04 10:34N 51°20' E 004°17'0 0.0
2016-Feb-04 09:33N 51°20' E 004°17'0 0.0
2016-Feb-04 08:34N 51°20' E 004°17'0 0.0
2016-Feb-04 07:33N 51°20' E 004°17'0 0.0
2016-Feb-04 06:33N 51°20' E 004°17'0 0.0
2016-Feb-04 05:33N 51°20' E 004°17'0 0.0
2016-Feb-04 04:32N 51°20' E 004°17'0 0.0
2016-Feb-04 03:34N 51°20' E 004°16'0 0.0
2016-Feb-04 02:33N 51°20' E 004°17'0 0.0
2016-Feb-04 01:33N 51°20' E 004°17'0 0.0
2016-Feb-04 00:33N 51°20' E 004°17'0 0.0
2016-Feb-03 23:33N 51°20' E 004°17'0 0.0
2016-Feb-03 22:33N 51°20' E 004°17'0 0.0
2016-Feb-03 21:32N 51°20' E 004°17'5 5.0
2016-Feb-03 20:34N 51°24' E 004°11'10 9.8
2016-Feb-03 19:34N 51°22' E 003°56'1212.0
2016-Feb-03 18:33N 51°26' E 003°37'1111.1
2016-Feb-03 17:33N 51°24' E 003°20'1110.9
2016-Feb-03 16:33N 51°25' E 003°02'1111.3
2016-Feb-03 15:33N 51°23' E 002°44'3 3.0
2016-Feb-03 14:32N 51°26' E 002°41'0 0.1
2016-Feb-03 13:26N 51°26' E 002°41'0 0.0
2016-Feb-03 12:26N 51°26' E 002°41'0 0.0
2016-Feb-03 10:17N 51°26' E 002°41'0 0.0
2016-Feb-03 09:29N 51°26' E 002°41'0 0.0
2016-Feb-03 08:20N 51°26' E 002°41'0 0.0
2016-Feb-03 07:26N 51°26' E 002°41'0 0.0
2016-Feb-03 05:32N 51°26' E 002°41'0 0.0
2016-Feb-03 04:26N 51°26' E 002°41'0 0.0
2016-Feb-03 03:32N 51°26' E 002°41'0 0.0
2016-Feb-03 02:32N 51°26' E 002°41'0 0.0
2016-Feb-03 01:17N 51°26' E 002°41'0 0.0
2016-Feb-03 00:32N 51°26' E 002°41'0 0.1
2016-Feb-02 23:26N 51°26' E 002°41'0 0.1
2016-Feb-02 22:32N 51°26' E 002°41'0 0.0
2016-Feb-02 21:32N 51°26' E 002°41'0 0.1
2016-Feb-02 20:32N 51°26' E 002°41'0 0.1
2016-Feb-02 19:20N 51°26' E 002°41'0 0.0
2016-Feb-02 18:26N 51°26' E 002°41'0 0.1
2016-Feb-02 17:32N 51°26' E 002°41'0 0.1
2016-Feb-02 16:31N 51°26' E 002°41'0 0.1
2016-Feb-02 15:31N 51°26' E 002°41'0 0.0
2016-Feb-02 14:31N 51°26' E 002°41'0 0.0
2016-Feb-02 13:30N 51°26' E 002°41'0 0.1
2016-Feb-02 12:30N 51°26' E 002°41'0 0.1
2016-Feb-02 11:30N 51°26' E 002°41'0 0.4
2016-Feb-02 10:27N 51°26' E 002°41'8 8.3
2016-Feb-02 09:32N 51°22' E 002°31'1616.9
2016-Feb-02 08:33N 51°15' E 002°07'2020.0
2016-Feb-02 07:33N 51°03' E 001°42'71519.0
2016-Jan-31 18:00N 46°06' W 014°42'16818.6 250 / 241029.1 5.4 1.015.011.314.0
2016-Jan-31 09:00N 44°54' W 018°18'5919.8 250 / 221030.4 5.4 1.015.011.315.0
2016-Jan-31 06:00N 44°24' W 019°30'35018.6 250 / 201030.610.8 15.011.315.0
2016-Jan-30 11:11N 42°17' W 026°59'14 6.4
2016-Jan-30 09:00N 42°06' W 026°48'16128.6 250 / 211032.5 5.4 0.515.011.316.0
2016-Jan-30 03:22N 41°57' W 030°24'4019.6
2016-Jan-30 01:19N 41°52' W 031°18'1519.1
2016-Jan-30 00:31N 41°49' W 031°38'6319.5
2016-Jan-29 21:17N 41°40' W 033°02'1420.1
2016-Jan-29 20:33N 41°38' W 033°21'8819.4
2016-Jan-29 16:00N 41°24' W 035°18'2323.3 210 / 251029.210.8 16.013.316.0
2016-Jan-29 15:00N 41°18' W 035°48'5418.2 210 / 251029.210.8 16.013.317.0
2016-Jan-29 12:00N 41°12' W 037°00'13622.7 200 / 251029.5 5.4 0.516.014.318.0
2016-Jan-29 06:00N 41°00' W 040°00'   180 / 201028.010.8 16.513.917.0

Dump ship's entire track history